Terminal Aerodrome Forecast
Issued by NWS Sioux Falls, SD

Home | Current Version | Previous Version | Text Only | Print | Product List | Glossary On
Versions: 1 2 3 4 5 6 7 8 9 10 11 12 13 14 15 16 17 18 19 20 21 22 23 24 25 26 27 28 29 30
000
FTUS43 KFSD 201500 AAC
TAFSUX
TAF AMD
KSUX 201524Z 2015/2112 15010KT P6SM SHRA SCT040 BKN090
      TEMPO 2016/2018 5SM TSRA BKN040CB
     FM201800 16013G19KT P6SM BKN150
     FM210100 15010KT P6SM SCT150=

USA.gov is the U.S. government's official web portal to all federal, state and local government web resources and services.